createdAt,value
2018-07-16T00:01:02.506Z,21.12
2018-07-16T00:03:31.240Z,21.09
2018-07-16T00:05:59.949Z,21.02
2018-07-16T00:08:28.627Z,20.97
2018-07-16T00:10:57.299Z,20.89
2018-07-16T00:13:25.927Z,20.85
2018-07-16T00:15:54.590Z,20.82
2018-07-16T00:18:23.265Z,20.80
2018-07-16T00:20:51.910Z,20.81
2018-07-16T00:23:20.543Z,20.72
2018-07-16T00:25:49.183Z,20.66
2018-07-16T00:28:17.875Z,20.62
2018-07-16T00:30:46.489Z,20.61
2018-07-16T00:33:15.147Z,20.53
2018-07-16T00:35:43.843Z,20.50
2018-07-16T00:38:12.506Z,20.50
2018-07-16T00:40:41.156Z,20.50
2018-07-16T00:43:09.809Z,20.53
2018-07-16T00:45:38.471Z,19.23
2018-07-16T00:48:07.169Z,20.51
2018-07-16T00:50:35.855Z,20.50
2018-07-16T00:53:04.508Z,20.51
2018-07-16T00:55:33.159Z,20.46
2018-07-16T00:58:01.795Z,20.46
2018-07-16T01:00:30.511Z,20.43
2018-07-16T01:02:59.134Z,20.41
2018-07-16T01:05:27.755Z,20.42
2018-07-16T01:07:56.398Z,20.44
2018-07-16T01:10:25.036Z,20.44
2018-07-16T01:12:53.709Z,20.43
2018-07-16T01:15:22.428Z,20.41
2018-07-16T01:17:51.043Z,20.42
2018-07-16T01:20:19.746Z,20.41
2018-07-16T01:22:48.440Z,20.40
2018-07-16T01:25:17.072Z,20.37
2018-07-16T01:27:45.690Z,20.33
2018-07-16T01:30:14.386Z,20.24
2018-07-16T01:32:42.990Z,20.30
2018-07-16T01:35:11.671Z,20.30
2018-07-16T01:37:40.324Z,20.31
2018-07-16T01:40:09.030Z,20.24
2018-07-16T01:42:37.707Z,20.21
2018-07-16T01:45:06.385Z,20.20
2018-07-16T01:47:35.130Z,20.19
2018-07-16T01:50:03.906Z,20.24
2018-07-16T01:52:32.558Z,20.18
2018-07-16T01:55:01.181Z,20.17
2018-07-16T01:57:29.848Z,20.14
2018-07-16T01:59:58.523Z,20.15
2018-07-16T02:02:27.163Z,20.04
2018-07-16T02:04:55.878Z,19.99
2018-07-16T02:07:24.630Z,19.96
2018-07-16T02:09:53.367Z,19.94
2018-07-16T02:12:22.031Z,20.01
2018-07-16T02:14:50.660Z,19.94
2018-07-16T02:17:19.298Z,19.88
2018-07-16T02:19:47.919Z,19.85
2018-07-16T02:22:16.560Z,19.82
2018-07-16T02:24:45.212Z,19.76
2018-07-16T02:27:13.908Z,19.78
2018-07-16T02:29:42.559Z,19.86
2018-07-16T02:32:11.296Z,19.91
2018-07-16T02:34:40.057Z,19.80
2018-07-16T02:37:08.687Z,19.78
2018-07-16T02:39:37.361Z,19.73
2018-07-16T02:42:05.992Z,19.71
2018-07-16T02:44:34.648Z,19.77
2018-07-16T02:47:03.392Z,19.64
2018-07-16T02:49:32.020Z,19.58
2018-07-16T02:52:00.660Z,19.59
2018-07-16T02:54:29.304Z,19.53
2018-07-16T02:56:57.944Z,19.44
2018-07-16T02:59:26.602Z,19.38
2018-07-16T03:01:55.302Z,19.40
2018-07-16T03:04:23.987Z,19.39
2018-07-16T03:06:52.652Z,19.51
2018-07-16T03:09:21.330Z,19.48
2018-07-16T03:11:50.184Z,19.47
2018-07-16T03:14:18.835Z,19.51
2018-07-16T03:16:47.451Z,19.50
2018-07-16T03:19:16.095Z,19.45
2018-07-16T03:21:44.730Z,19.42
2018-07-16T03:24:13.375Z,19.40
2018-07-16T03:26:42.047Z,19.38
2018-07-16T03:29:10.720Z,19.48
2018-07-16T03:31:39.439Z,19.51
2018-07-16T03:34:08.123Z,19.51
2018-07-16T03:36:36.757Z,19.53
2018-07-16T03:39:18.030Z,19.55
2018-07-16T03:41:46.671Z,19.58
2018-07-16T03:44:15.322Z,19.64
2018-07-16T03:46:43.978Z,19.65
2018-07-16T03:49:12.737Z,19.66
2018-07-16T03:51:41.535Z,19.75
2018-07-16T03:54:10.278Z,19.74
2018-07-16T03:56:38.969Z,19.71
2018-07-16T03:59:07.669Z,19.71
2018-07-16T04:01:36.348Z,19.79
2018-07-16T04:04:05.075Z,19.88
2018-07-16T04:06:33.721Z,19.97
2018-07-16T04:09:02.354Z,19.99
2018-07-16T04:11:31.004Z,20.04
2018-07-16T04:13:59.700Z,20.10
2018-07-16T04:16:28.406Z,20.09
2018-07-16T04:18:57.057Z,20.13
2018-07-16T04:21:25.730Z,20.18
2018-07-16T04:23:54.516Z,20.23
2018-07-16T04:26:23.175Z,20.32
2018-07-16T04:28:52.001Z,20.40
2018-07-16T04:31:20.895Z,20.43
2018-07-16T04:33:49.541Z,20.40
2018-07-16T04:36:18.299Z,20.52
2018-07-16T04:38:47.188Z,20.63
2018-07-16T04:41:15.957Z,20.70
2018-07-16T04:43:44.682Z,20.73
2018-07-16T04:46:13.336Z,20.78
2018-07-16T04:48:41.975Z,20.83
2018-07-16T04:51:10.609Z,20.84
2018-07-16T04:53:39.298Z,20.98
2018-07-16T04:56:08.083Z,21.01
2018-07-16T04:58:36.757Z,21.20
2018-07-16T05:01:05.430Z,21.21
2018-07-16T05:03:34.171Z,21.35
2018-07-16T05:06:02.807Z,21.38
2018-07-16T05:08:31.483Z,21.46
2018-07-16T05:11:00.130Z,21.66
2018-07-16T05:13:28.834Z,21.94
2018-07-16T05:15:57.569Z,22.13
2018-07-16T05:18:26.512Z,22.37
2018-07-16T05:20:54.936Z,22.77
2018-07-16T05:23:23.616Z,22.97
2018-07-16T05:25:52.308Z,23.32
2018-07-16T05:28:21.011Z,23.42
2018-07-16T05:30:49.681Z,23.58
2018-07-16T05:33:18.349Z,22.95
2018-07-16T05:35:46.994Z,23.80
2018-07-16T05:38:15.793Z,24.27
2018-07-16T05:40:44.407Z,24.48
2018-07-16T05:43:13.047Z,24.62
2018-07-16T05:45:41.709Z,24.83
2018-07-16T05:48:10.480Z,25.04
2018-07-16T05:50:39.151Z,25.14
2018-07-16T05:53:07.879Z,25.47
2018-07-16T05:55:36.527Z,25.69
2018-07-16T05:58:05.204Z,25.46
2018-07-16T06:00:33.830Z,25.48
2018-07-16T06:03:02.499Z,25.31
2018-07-16T06:05:31.182Z,25.27
2018-07-16T06:07:59.822Z,25.38
2018-07-16T06:10:28.548Z,25.65
2018-07-16T06:12:57.210Z,26.28
2018-07-16T06:15:25.870Z,26.44
2018-07-16T06:17:54.615Z,26.50
2018-07-16T06:20:23.254Z,26.22
2018-07-16T06:22:51.890Z,26.32
2018-07-16T06:25:20.553Z,26.12
2018-07-16T06:27:49.256Z,26.05
2018-07-16T06:30:17.903Z,26.44
2018-07-16T06:32:46.527Z,26.15
2018-07-16T06:35:15.203Z,26.35
2018-07-16T06:37:43.950Z,26.59
2018-07-16T06:40:13.067Z,27.05
2018-07-16T06:42:41.911Z,27.50
2018-07-16T06:45:10.640Z,27.46
2018-07-16T06:47:39.390Z,27.44
2018-07-16T06:50:08.355Z,27.84
2018-07-16T06:52:37.240Z,27.81
2018-07-16T06:55:06.449Z,27.59
2018-07-16T06:57:35.426Z,27.51
2018-07-16T07:00:07.453Z,27.92
2018-07-16T07:02:36.171Z,28.14
2018-07-16T07:05:04.872Z,28.35
2018-07-16T07:07:33.497Z,28.47
2018-07-16T07:10:02.207Z,29.03
2018-07-16T07:12:30.895Z,29.16
2018-07-16T07:14:59.618Z,28.98
2018-07-16T07:17:28.255Z,29.24
2018-07-16T07:19:56.915Z,29.18
2018-07-16T07:22:25.629Z,28.92
2018-07-16T07:24:54.297Z,29.43
2018-07-16T07:27:22.944Z,30.22
2018-07-16T07:29:51.602Z,30.86
2018-07-16T07:32:20.246Z,30.30
2018-07-16T07:34:49.000Z,30.09
2018-07-16T07:37:17.678Z,29.65
2018-07-16T07:39:46.480Z,29.31
2018-07-16T07:42:15.135Z,29.58
2018-07-16T07:44:43.906Z,29.69
2018-07-16T07:47:12.577Z,29.48
2018-07-16T07:49:41.239Z,30.00
2018-07-16T07:52:09.898Z,30.43
2018-07-16T07:54:38.731Z,30.06
2018-07-16T07:57:07.339Z,29.67
2018-07-16T07:59:35.986Z,29.99
2018-07-16T08:02:04.786Z,30.32
2018-07-16T08:04:33.459Z,30.72
2018-07-16T08:07:07.293Z,30.40
2018-07-16T08:09:35.944Z,30.31
2018-07-16T08:12:04.799Z,30.11
2018-07-16T08:14:33.635Z,30.35
2018-07-16T08:17:02.328Z,30.53
2018-07-16T08:19:30.996Z,31.30
2018-07-16T08:21:59.690Z,31.03
2018-07-16T08:24:28.424Z,30.84
2018-07-16T08:26:57.143Z,30.75
2018-07-16T08:29:25.936Z,30.69
2018-07-16T08:31:55.227Z,30.73
2018-07-16T08:34:23.890Z,30.76
2018-07-16T08:36:52.550Z,31.19
2018-07-16T08:39:21.307Z,30.80
2018-07-16T08:41:50.322Z,31.09
2018-07-16T08:44:19.040Z,30.32
2018-07-16T08:46:47.707Z,30.89
2018-07-16T08:49:16.342Z,31.07
2018-07-16T08:51:45.060Z,31.61
2018-07-16T08:54:13.802Z,31.46
2018-07-16T08:56:42.598Z,31.52
2018-07-16T08:59:11.310Z,31.75
2018-07-16T09:01:40.007Z,31.54
2018-07-16T09:04:08.752Z,31.17
2018-07-16T09:06:37.499Z,32.01
2018-07-16T09:09:06.583Z,31.91
2018-07-16T09:11:35.219Z,32.02
2018-07-16T09:14:04.033Z,31.91
2018-07-16T09:16:32.742Z,30.52
2018-07-16T09:19:01.447Z,28.93
2018-07-16T09:21:30.549Z,29.93
2018-07-16T09:23:59.223Z,30.24
2018-07-16T09:26:27.969Z,30.53
2018-07-16T09:28:56.594Z,31.19
2018-07-16T09:31:25.250Z,31.12
2018-07-16T09:33:53.903Z,31.03
2018-07-16T09:36:22.570Z,30.98
2018-07-16T09:38:51.258Z,31.79
2018-07-16T09:41:19.913Z,31.98
2018-07-16T09:43:48.672Z,31.67
2018-07-16T09:46:17.610Z,30.83
2018-07-16T09:48:46.258Z,31.12
2018-07-16T09:51:14.898Z,31.59
2018-07-16T09:53:43.530Z,31.79
2018-07-16T09:56:12.221Z,30.89
2018-07-16T09:58:40.890Z,30.83
2018-07-16T10:01:14.739Z,31.33
2018-07-16T10:03:43.383Z,31.18
2018-07-16T10:06:12.055Z,31.34
2018-07-16T10:08:40.710Z,32.08
2018-07-16T10:11:09.348Z,31.95
2018-07-16T10:13:38.027Z,32.12
2018-07-16T10:16:06.999Z,31.93
2018-07-16T10:18:35.642Z,31.69
2018-07-16T10:21:04.702Z,31.65
2018-07-16T10:23:33.383Z,31.90
2018-07-16T10:26:02.071Z,31.66
2018-07-16T10:28:30.779Z,32.23
2018-07-16T10:30:59.429Z,32.28
2018-07-16T10:33:28.131Z,32.13
2018-07-16T10:35:56.782Z,32.52
2018-07-16T10:38:25.635Z,32.17
2018-07-16T10:40:54.496Z,32.25
2018-07-16T10:43:23.161Z,32.30
2018-07-16T10:45:51.901Z,32.55
2018-07-16T10:48:20.547Z,33.23
2018-07-16T10:50:49.363Z,33.60
2018-07-16T10:53:18.076Z,32.84
2018-07-16T10:55:46.758Z,32.08
2018-07-16T10:58:15.443Z,32.50
2018-07-16T11:00:44.126Z,32.26
2018-07-16T11:03:12.880Z,32.59
2018-07-16T11:05:41.552Z,32.64
2018-07-16T11:08:11.043Z,32.38
2018-07-16T11:10:39.691Z,32.35
2018-07-16T11:13:08.428Z,32.36
2018-07-16T11:15:37.150Z,32.09
2018-07-16T11:18:05.813Z,32.04
2018-07-16T11:20:34.456Z,32.24
2018-07-16T11:23:03.184Z,32.07
2018-07-16T11:25:32.020Z,31.92
2018-07-16T11:28:00.707Z,32.05
2018-07-16T11:30:29.349Z,32.50
2018-07-16T11:32:58.054Z,32.24
2018-07-16T11:35:26.774Z,32.39
2018-07-16T11:37:55.556Z,31.56
2018-07-16T11:40:24.268Z,31.12
2018-07-16T11:42:52.931Z,31.40
2018-07-16T11:45:21.652Z,32.37
2018-07-16T11:47:50.335Z,32.99
2018-07-16T11:50:18.973Z,32.91
2018-07-16T11:52:47.640Z,32.71
2018-07-16T11:55:16.356Z,33.16
2018-07-16T11:57:45.086Z,33.28
2018-07-16T12:00:13.811Z,31.83
2018-07-16T12:02:42.496Z,31.55
2018-07-16T12:05:11.237Z,31.47
2018-07-16T12:07:39.880Z,31.38
2018-07-16T12:10:08.671Z,31.48
2018-07-16T12:12:37.513Z,31.20
2018-07-16T12:15:06.234Z,31.19
2018-07-16T12:17:34.881Z,31.36
2018-07-16T12:20:03.522Z,30.90
2018-07-16T12:22:32.291Z,30.97
2018-07-16T12:25:01.039Z,30.58
2018-07-16T12:27:29.745Z,30.65
2018-07-16T12:29:58.449Z,30.69
2018-07-16T12:32:27.119Z,30.71
2018-07-16T12:34:55.749Z,30.54
2018-07-16T12:37:24.470Z,30.56
2018-07-16T12:39:53.099Z,30.69
2018-07-16T12:42:21.860Z,30.32
2018-07-16T12:44:50.597Z,30.24
2018-07-16T12:47:19.367Z,29.89
2018-07-16T12:49:47.992Z,29.86
2018-07-16T12:52:16.629Z,29.77
2018-07-16T12:54:45.395Z,29.67
2018-07-16T12:57:14.056Z,29.74
2018-07-16T12:59:42.728Z,29.90
2018-07-16T13:02:11.661Z,30.30
2018-07-16T13:04:40.326Z,30.67
2018-07-16T13:07:08.956Z,30.62
2018-07-16T13:09:37.590Z,30.28
2018-07-16T13:12:06.519Z,29.51
2018-07-16T13:14:35.191Z,29.42
2018-07-16T13:17:03.914Z,29.61
2018-07-16T13:19:32.639Z,29.90
2018-07-16T13:22:01.269Z,30.17
2018-07-16T13:24:29.935Z,30.76
2018-07-16T13:26:58.623Z,31.08
2018-07-16T13:29:27.238Z,31.53
2018-07-16T13:31:55.943Z,32.05
2018-07-16T13:34:24.675Z,32.51
2018-07-16T13:36:53.349Z,32.73
2018-07-16T13:39:21.968Z,32.97
2018-07-16T13:41:50.626Z,33.51
2018-07-16T13:44:19.383Z,32.99
2018-07-16T13:46:48.121Z,31.10
2018-07-16T13:49:16.737Z,29.65
2018-07-16T13:51:45.390Z,28.83
2018-07-16T13:54:14.213Z,28.52
2018-07-16T13:56:43.031Z,28.49
2018-07-16T13:59:12.340Z,28.62
2018-07-16T14:01:41.043Z,28.62
2018-07-16T14:04:09.714Z,28.54
2018-07-16T14:06:38.323Z,28.54
2018-07-16T14:09:08.472Z,28.44
2018-07-16T14:11:37.240Z,28.36
2018-07-16T14:14:06.322Z,28.29
2018-07-16T14:16:35.005Z,28.18
2018-07-16T14:19:03.695Z,28.16
2018-07-16T14:21:32.324Z,28.22
2018-07-16T14:24:00.976Z,28.10
2018-07-16T14:26:29.574Z,28.15
2018-07-16T14:28:58.260Z,28.30
2018-07-16T14:31:27.017Z,28.37
2018-07-16T14:33:55.635Z,28.35
2018-07-16T14:36:24.288Z,28.26
2018-07-16T14:38:52.918Z,28.35
2018-07-16T14:41:21.574Z,28.45
2018-07-16T14:43:50.248Z,28.46
2018-07-16T14:46:18.863Z,28.33
2018-07-16T14:48:47.496Z,28.08
2018-07-16T14:51:16.306Z,28.14
2018-07-16T14:53:45.008Z,28.22
2018-07-16T14:56:13.695Z,28.13
2018-07-16T14:58:42.398Z,28.03
2018-07-16T15:01:11.095Z,27.95
2018-07-16T15:03:40.501Z,28.05
2018-07-16T15:06:09.340Z,28.17
2018-07-16T15:08:38.042Z,28.16
2018-07-16T15:11:06.902Z,28.08
2018-07-16T15:13:35.580Z,28.07
2018-07-16T15:16:04.469Z,28.01
2018-07-16T15:18:33.779Z,27.81
2018-07-16T15:21:08.018Z,27.77
2018-07-16T15:23:38.825Z,27.98
2018-07-16T15:26:08.375Z,27.91
2018-07-16T15:28:37.042Z,27.81
2018-07-16T15:31:05.786Z,27.77
2018-07-16T15:33:34.482Z,27.67
2018-07-16T15:36:04.761Z,27.60
2018-07-16T15:38:33.516Z,27.48
2018-07-16T15:41:02.247Z,27.47
2018-07-16T15:43:31.358Z,27.46
2018-07-16T15:46:00.199Z,27.44
2018-07-16T15:48:28.828Z,27.44
2018-07-16T15:50:57.495Z,27.52
2018-07-16T15:53:26.243Z,27.60
2018-07-16T15:55:55.174Z,27.60
2018-07-16T15:58:24.027Z,27.61
2018-07-16T16:00:52.749Z,27.55
2018-07-16T16:03:21.352Z,27.49
2018-07-16T16:05:59.808Z,27.42
2018-07-16T16:08:28.840Z,27.40
2018-07-16T16:11:10.961Z,27.34
2018-07-16T16:13:39.849Z,27.31
2018-07-16T16:16:08.642Z,27.28
2018-07-16T16:18:37.366Z,27.27
2018-07-16T16:21:06.178Z,27.25
2018-07-16T16:23:34.881Z,27.21
2018-07-16T16:26:03.667Z,27.20
2018-07-16T16:28:33.142Z,27.21
2018-07-16T16:31:01.848Z,27.10
2018-07-16T16:33:30.704Z,26.97
2018-07-16T16:35:59.483Z,26.81
2018-07-16T16:38:28.335Z,26.76
2018-07-16T16:40:57.075Z,26.68
2018-07-16T16:43:25.749Z,26.66
2018-07-16T16:45:54.540Z,26.62
2018-07-16T16:48:24.287Z,26.58
2018-07-16T16:50:52.977Z,26.51
2018-07-16T16:53:21.676Z,26.50
2018-07-16T16:55:50.394Z,26.46
2018-07-16T16:58:19.199Z,26.36
2018-07-16T17:00:47.964Z,26.34
2018-07-16T17:03:16.631Z,26.28
2018-07-16T17:05:45.791Z,26.24
2018-07-16T17:08:14.451Z,26.18
2018-07-16T17:10:43.136Z,26.14
2018-07-16T17:13:12.128Z,26.16
2018-07-16T17:15:40.810Z,26.13
2018-07-16T17:18:09.501Z,26.11
2018-07-16T17:20:38.131Z,26.03
2018-07-16T17:23:07.486Z,25.96
2018-07-16T17:25:36.213Z,25.98
2018-07-16T17:28:04.998Z,25.94
2018-07-16T17:30:33.707Z,25.89
2018-07-16T17:33:02.427Z,25.89
2018-07-16T17:35:31.127Z,25.89
2018-07-16T17:37:59.773Z,25.87
2018-07-16T17:40:28.558Z,25.84
2018-07-16T17:42:57.176Z,25.80
2018-07-16T17:45:25.871Z,25.79
2018-07-16T17:47:54.538Z,25.79
2018-07-16T17:50:23.220Z,25.75
2018-07-16T17:52:51.928Z,25.72
2018-07-16T17:55:20.663Z,25.65
2018-07-16T17:57:49.445Z,25.61
2018-07-16T18:00:18.203Z,25.58
2018-07-16T18:02:46.904Z,25.50
2018-07-16T18:05:16.250Z,25.44
2018-07-16T18:07:44.922Z,25.39
2018-07-16T18:10:13.634Z,25.47
2018-07-16T18:12:42.368Z,25.48
2018-07-16T18:15:11.093Z,25.42
2018-07-16T18:17:39.820Z,25.31
2018-07-16T18:20:08.503Z,25.23
2018-07-16T18:22:37.487Z,25.24
2018-07-16T18:25:06.172Z,25.24
2018-07-16T18:27:34.822Z,25.22
2018-07-16T18:30:04.492Z,25.11
2018-07-16T18:32:33.208Z,25.06
2018-07-16T18:35:01.930Z,25.04
2018-07-16T18:37:30.675Z,25.02
2018-07-16T18:39:59.332Z,25.01
2018-07-16T18:42:28.011Z,25.01
2018-07-16T18:44:56.662Z,24.95
2018-07-16T18:47:25.378Z,24.92
2018-07-16T18:49:54.046Z,24.93
2018-07-16T18:52:22.674Z,24.96
2018-07-16T18:54:51.577Z,24.97
2018-07-16T18:57:20.351Z,24.99
2018-07-16T18:59:49.655Z,24.98
2018-07-16T19:02:18.338Z,24.89
2018-07-16T19:04:47.002Z,24.94
2018-07-16T19:07:15.831Z,24.91
2018-07-16T19:09:44.535Z,24.84
2018-07-16T19:12:13.204Z,24.72
2018-07-16T19:14:41.847Z,24.65
2018-07-16T19:17:10.615Z,24.58
2018-07-16T19:19:39.361Z,24.53
2018-07-16T19:22:08.353Z,24.52
2018-07-16T19:24:37.034Z,24.53
2018-07-16T19:27:05.809Z,24.55
2018-07-16T19:29:35.209Z,24.45
2018-07-16T19:32:03.866Z,24.42
2018-07-16T19:34:32.526Z,24.42
2018-07-16T19:37:01.754Z,24.43
2018-07-16T19:39:30.495Z,24.44
2018-07-16T19:41:59.206Z,24.41
2018-07-16T19:44:28.506Z,24.38
2018-07-16T19:46:57.242Z,24.10
2018-07-16T19:49:25.900Z,24.43
2018-07-16T19:51:54.575Z,24.46
2018-07-16T19:54:23.329Z,24.37
2018-07-16T19:56:52.653Z,24.28
2018-07-16T19:59:21.871Z,24.09
2018-07-16T20:01:50.564Z,24.05
2018-07-16T20:04:19.187Z,24.07
2018-07-16T20:06:47.879Z,24.08
2018-07-16T20:09:16.651Z,24.05
2018-07-16T20:11:45.333Z,24.04
2018-07-16T20:14:15.074Z,24.03
2018-07-16T20:16:44.252Z,23.93
2018-07-16T20:19:13.352Z,23.95
2018-07-16T20:21:42.076Z,23.99
2018-07-16T20:24:10.790Z,24.01
2018-07-16T20:26:39.486Z,23.99
2018-07-16T20:29:08.187Z,23.97
2018-07-16T20:31:37.552Z,23.95
2018-07-16T20:34:06.340Z,23.93
2018-07-16T20:36:35.002Z,23.90
2018-07-16T20:39:04.478Z,23.87
2018-07-16T20:41:33.309Z,23.79
2018-07-16T20:44:02.022Z,23.63
2018-07-16T20:46:31.257Z,23.58
2018-07-16T20:48:59.904Z,23.31
2018-07-16T20:51:28.871Z,23.12
2018-07-16T20:53:58.003Z,23.04
2018-07-16T20:56:26.673Z,22.91
2018-07-16T20:58:55.505Z,22.82
2018-07-16T21:04:14.666Z,22.76
2018-07-16T21:06:43.556Z,22.70
2018-07-16T21:09:12.279Z,22.66
2018-07-16T21:11:40.941Z,22.50
2018-07-16T21:14:09.614Z,22.24
2018-07-16T21:16:38.707Z,22.09
2018-07-16T21:19:07.423Z,22.07
2018-07-16T21:21:36.216Z,22.13
2018-07-16T21:24:04.880Z,22.15
2018-07-16T21:26:33.573Z,22.13
2018-07-16T21:29:02.332Z,22.07
2018-07-16T21:31:31.110Z,22.16
2018-07-16T21:33:59.750Z,22.08
2018-07-16T21:36:28.484Z,22.09
2018-07-16T21:38:57.187Z,22.04
2018-07-16T21:41:25.860Z,22.11
2018-07-16T21:43:54.507Z,22.15
2018-07-16T21:46:23.279Z,22.09
2018-07-16T21:48:51.872Z,21.82
2018-07-16T21:51:20.502Z,21.83
2018-07-16T21:53:49.211Z,21.83
2018-07-16T21:56:17.867Z,21.80
2018-07-16T21:58:46.562Z,21.69
2018-07-16T22:01:15.249Z,21.62
2018-07-16T22:03:43.961Z,21.59
2018-07-16T22:06:12.615Z,21.55
2018-07-16T22:08:41.376Z,21.65
2018-07-16T22:11:10.042Z,21.66
2018-07-16T22:13:38.699Z,21.55
2018-07-16T22:16:07.628Z,21.43
2018-07-16T22:18:36.283Z,21.43
2018-07-16T22:21:04.907Z,21.41
2018-07-16T22:23:33.580Z,21.46
2018-07-16T22:26:02.295Z,21.47
2018-07-16T22:28:30.975Z,21.56
2018-07-16T22:30:59.687Z,21.52
2018-07-16T22:33:28.341Z,21.49
2018-07-16T22:35:57.026Z,21.45
2018-07-16T22:38:25.801Z,21.42
2018-07-16T22:40:54.491Z,21.33
2018-07-16T22:43:23.170Z,21.33
2018-07-16T22:45:51.856Z,21.39
2018-07-16T22:48:20.547Z,21.17
2018-07-16T22:50:49.250Z,21.14
2018-07-16T22:53:17.941Z,21.16
2018-07-16T22:55:46.892Z,21.16
2018-07-16T22:58:15.556Z,20.95
2018-07-16T23:00:44.226Z,20.71
2018-07-16T23:03:12.848Z,20.66
2018-07-16T23:05:41.513Z,20.76
2018-07-16T23:08:10.235Z,20.75
2018-07-16T23:10:38.870Z,20.62
2018-07-16T23:13:07.530Z,20.51
2018-07-16T23:15:36.219Z,20.49
2018-07-16T23:18:04.863Z,20.31
2018-07-16T23:20:33.548Z,20.29
2018-07-16T23:23:02.168Z,20.33
2018-07-16T23:25:30.771Z,20.34
2018-07-16T23:27:59.436Z,20.22
2018-07-16T23:30:28.131Z,20.14
2018-07-16T23:32:56.835Z,20.24
2018-07-16T23:35:49.119Z,20.17
2018-07-16T23:38:18.004Z,20.17
2018-07-16T23:40:46.725Z,20.14
2018-07-16T23:43:15.435Z,19.94
2018-07-16T23:45:44.428Z,19.88
2018-07-16T23:48:13.149Z,19.85
2018-07-16T23:50:41.905Z,19.74
2018-07-16T23:53:10.562Z,19.59
2018-07-16T23:55:39.329Z,19.48
2018-07-16T23:58:07.960Z,19.47
